sensor_id;sensor_type;location;lat;lon;timestamp;pressure;altitude;pressure_sealevel;temperature;humidity
49030;BME280;43337;52.070;4.508;2023-08-20T00:00:11;102177.84;;;19.27;100.00
49030;BME280;43337;52.070;4.508;2023-08-20T00:02:37;102170.00;;;19.24;100.00
49030;BME280;43337;52.070;4.508;2023-08-20T00:05:03;102171.22;;;19.19;100.00
49030;BME280;43337;52.070;4.508;2023-08-20T00:07:30;102178.13;;;19.23;100.00
49030;BME280;43337;52.070;4.508;2023-08-20T00:09:56;102147.81;;;19.08;100.00
49030;BME280;43337;52.070;4.508;2023-08-20T00:12:21;102172.78;;;19.23;100.00
49030;BME280;43337;52.070;4.508;2023-08-20T00:15:12;102169.31;;;19.21;100.00
49030;BME280;43337;52.070;4.508;2023-08-20T00:17:39;102149.63;;;19.08;100.00
49030;BME280;43337;52.070;4.508;2023-08-20T00:20:06;102152.28;;;19.08;100.00
49030;BME280;43337;52.070;4.508;2023-08-20T00:22:38;102174.06;;;19.16;100.00
49030;BME280;43337;52.070;4.508;2023-08-20T00:25:04;102170.63;;;19.14;100.00
49030;BME280;43337;52.070;4.508;2023-08-20T00:27:30;102176.84;;;19.14;100.00
49030;BME280;43337;52.070;4.508;2023-08-20T00:29:56;102179.31;;;19.17;100.00
49030;BME280;43337;52.070;4.508;2023-08-20T00:32:21;102192.75;;;19.16;100.00
49030;BME280;43337;52.070;4.508;2023-08-20T00:34:46;102185.28;;;19.07;100.00
49030;BME280;43337;52.070;4.508;2023-08-20T00:37:12;102182.94;;;19.00;100.00
49030;BME280;43337;52.070;4.508;2023-08-20T00:39:37;102194.16;;;19.07;100.00
49030;BME280;43337;52.070;4.508;2023-08-20T00:42:03;102228.84;;;19.23;100.00
49030;BME280;43337;52.070;4.508;2023-08-20T00:44:30;102222.44;;;19.25;100.00
49030;BME280;43337;52.070;4.508;2023-08-20T00:46:55;102222.28;;;19.28;100.00
49030;BME280;43337;52.070;4.508;2023-08-20T00:49:21;102218.88;;;19.26;100.00
49030;BME280;43337;52.070;4.508;2023-08-20T00:51:47;102215.41;;;19.24;100.00
49030;BME280;43337;52.070;4.508;2023-08-20T00:54:13;102205.09;;;19.18;100.00
49030;BME280;43337;52.070;4.508;2023-08-20T00:56:38;102217.47;;;19.19;100.00
49030;BME280;43337;52.070;4.508;2023-08-20T00:59:05;102224.69;;;19.17;100.00
49030;BME280;43337;52.070;4.508;2023-08-20T01:01:30;102235.22;;;19.20;100.00
49030;BME280;43337;52.070;4.508;2023-08-20T01:03:56;102231.84;;;19.17;100.00
49030;BME280;43337;52.070;4.508;2023-08-20T01:06:32;102240.81;;;19.16;100.00
49030;BME280;43337;52.070;4.508;2023-08-20T01:09:12;102238.31;;;19.13;100.00
49030;BME280;43337;52.070;4.508;2023-08-20T01:11:47;102237.56;;;19.11;100.00
49030;BME280;43337;52.070;4.508;2023-08-20T01:14:15;102241.25;;;19.08;100.00
49030;BME280;43337;52.070;4.508;2023-08-20T01:16:41;102235.13;;;19.06;100.00
49030;BME280;43337;52.070;4.508;2023-08-20T01:19:08;102229.78;;;19.06;100.00
49030;BME280;43337;52.070;4.508;2023-08-20T01:21:39;102211.88;;;18.92;100.00
49030;BME280;43337;52.070;4.508;2023-08-20T01:24:36;102224.88;;;18.98;100.00
49030;BME280;43337;52.070;4.508;2023-08-20T01:30:07;102219.38;;;18.86;100.00
49030;BME280;43337;52.070;4.508;2023-08-20T01:32:33;102239.75;;;18.87;100.00
49030;BME280;43337;52.070;4.508;2023-08-20T01:35:00;102239.06;;;18.83;100.00
49030;BME280;43337;52.070;4.508;2023-08-20T01:37:25;102227.25;;;18.71;100.00
49030;BME280;43337;52.070;4.508;2023-08-20T01:39:52;102228.16;;;18.72;100.00
49030;BME280;43337;52.070;4.508;2023-08-20T01:42:18;102216.09;;;18.63;100.00
49030;BME280;43337;52.070;4.508;2023-08-20T01:44:43;102209.91;;;18.63;100.00
49030;BME280;43337;52.070;4.508;2023-08-20T01:47:08;102211.81;;;18.61;100.00
49030;BME280;43337;52.070;4.508;2023-08-20T01:49:34;102228.28;;;18.69;100.00
49030;BME280;43337;52.070;4.508;2023-08-20T01:51:59;102230.16;;;18.67;100.00
49030;BME280;43337;52.070;4.508;2023-08-20T01:54:24;102229.59;;;18.60;100.00
49030;BME280;43337;52.070;4.508;2023-08-20T01:56:50;102231.41;;;18.60;100.00
49030;BME280;43337;52.070;4.508;2023-08-20T01:59:15;102226.19;;;18.58;100.00
49030;BME280;43337;52.070;4.508;2023-08-20T02:01:40;102193.50;;;18.37;100.00
49030;BME280;43337;52.070;4.508;2023-08-20T02:04:06;102210.03;;;18.44;100.00
49030;BME280;43337;52.070;4.508;2023-08-20T02:06:31;102185.75;;;18.33;100.00
49030;BME280;43337;52.070;4.508;2023-08-20T02:08:56;102197.38;;;18.32;100.00
49030;BME280;43337;52.070;4.508;2023-08-20T02:11:22;102200.03;;;18.32;100.00
49030;BME280;43337;52.070;4.508;2023-08-20T02:13:48;102223.63;;;18.39;100.00
49030;BME280;43337;52.070;4.508;2023-08-20T02:16:13;102229.91;;;18.38;100.00
49030;BME280;43337;52.070;4.508;2023-08-20T02:18:38;102210.97;;;18.27;100.00
49030;BME280;43337;52.070;4.508;2023-08-20T02:21:04;102231.94;;;18.33;100.00
49030;BME280;43337;52.070;4.508;2023-08-20T02:23:29;102224.44;;;18.24;100.00
49030;BME280;43337;52.070;4.508;2023-08-20T02:25:55;102211.50;;;18.16;100.00
49030;BME280;43337;52.070;4.508;2023-08-20T02:28:20;102221.94;;;18.21;100.00
49030;BME280;43337;52.070;4.508;2023-08-20T02:30:46;102230.56;;;18.26;100.00
49030;BME280;43337;52.070;4.508;2023-08-20T02:33:12;102222.56;;;18.26;100.00
49030;BME280;43337;52.070;4.508;2023-08-20T02:35:38;102220.81;;;18.25;100.00
49030;BME280;43337;52.070;4.508;2023-08-20T02:38:04;102225.53;;;18.20;100.00
49030;BME280;43337;52.070;4.508;2023-08-20T02:40:30;102230.88;;;18.20;100.00
49030;BME280;43337;52.070;4.508;2023-08-20T02:42:56;102238.03;;;18.19;100.00
49030;BME280;43337;52.070;4.508;2023-08-20T02:45:21;102243.34;;;18.19;100.00
49030;BME280;43337;52.070;4.508;2023-08-20T02:47:46;102250.50;;;18.19;100.00
49030;BME280;43337;52.070;4.508;2023-08-20T02:50:12;102247.97;;;18.16;100.00
49030;BME280;43337;52.070;4.508;2023-08-20T02:52:37;102236.69;;;18.11;100.00
49030;BME280;43337;52.070;4.508;2023-08-20T02:55:03;102258.50;;;18.19;100.00
49030;BME280;43337;52.070;4.508;2023-08-20T02:57:31;102261.06;;;18.20;100.00
49030;BME280;43337;52.070;4.508;2023-08-20T02:59:56;102259.25;;;18.21;100.00
49030;BME280;43337;52.070;4.508;2023-08-20T03:02:22;102264.53;;;18.22;100.00
49030;BME280;43337;52.070;4.508;2023-08-20T03:04:47;102266.34;;;18.22;100.00
49030;BME280;43337;52.070;4.508;2023-08-20T03:07:12;102243.66;;;18.13;100.00
49030;BME280;43337;52.070;4.508;2023-08-20T03:09:38;102257.53;;;18.20;100.00
49030;BME280;43337;52.070;4.508;2023-08-20T03:12:05;102273.22;;;18.26;100.00
49030;BME280;43337;52.070;4.508;2023-08-20T03:14:30;102267.34;;;18.19;100.00
49030;BME280;43337;52.070;4.508;2023-08-20T03:16:56;102247.44;;;18.09;100.00
49030;BME280;43337;52.070;4.508;2023-08-20T03:19:21;102265.53;;;18.20;100.00
49030;BME280;43337;52.070;4.508;2023-08-20T03:21:49;102257.63;;;18.18;100.00
49030;BME280;43337;52.070;4.508;2023-08-20T03:24:15;102249.94;;;18.12;100.00
49030;BME280;43337;52.070;4.508;2023-08-20T03:26:40;102255.88;;;18.17;100.00
49030;BME280;43337;52.070;4.508;2023-08-20T03:29:05;102255.13;;;18.15;100.00
49030;BME280;43337;52.070;4.508;2023-08-20T03:31:31;102255.81;;;18.19;100.00
49030;BME280;43337;52.070;4.508;2023-08-20T03:33:56;102237.09;;;18.03;100.00
49030;BME280;43337;52.070;4.508;2023-08-20T03:36:22;102226.75;;;17.97;100.00
49030;BME280;43337;52.070;4.508;2023-08-20T03:38:47;102259.75;;;18.12;100.00
49030;BME280;43337;52.070;4.508;2023-08-20T03:41:12;102231.22;;;17.96;100.00
49030;BME280;43337;52.070;4.508;2023-08-20T03:43:38;102242.34;;;18.04;100.00
49030;BME280;43337;52.070;4.508;2023-08-20T03:46:03;102247.97;;;17.98;100.00
49030;BME280;43337;52.070;4.508;2023-08-20T03:48:31;102254.81;;;18.04;100.00
49030;BME280;43337;52.070;4.508;2023-08-20T03:50:57;102261.09;;;18.03;100.00
49030;BME280;43337;52.070;4.508;2023-08-20T03:53:22;102256.84;;;17.99;100.00
49030;BME280;43337;52.070;4.508;2023-08-20T03:55:48;102265.53;;;18.02;100.00
49030;BME280;43337;52.070;4.508;2023-08-20T03:58:14;102244.78;;;17.92;100.00
49030;BME280;43337;52.070;4.508;2023-08-20T04:00:40;102267.56;;;17.97;100.00
49030;BME280;43337;52.070;4.508;2023-08-20T04:03:05;102241.84;;;17.79;100.00
49030;BME280;43337;52.070;4.508;2023-08-20T04:05:36;102259.34;;;17.85;100.00
49030;BME280;43337;52.070;4.508;2023-08-20T04:08:01;102276.56;;;17.95;100.00
49030;BME280;43337;52.070;4.508;2023-08-20T04:10:27;102283.66;;;17.96;100.00
49030;BME280;43337;52.070;4.508;2023-08-20T04:12:52;102263.88;;;17.83;100.00
49030;BME280;43337;52.070;4.508;2023-08-20T04:15:18;102260.50;;;17.79;100.00
49030;BME280;43337;52.070;4.508;2023-08-20T04:17:43;102281.59;;;17.84;100.00
49030;BME280;43337;52.070;4.508;2023-08-20T04:20:09;102263.50;;;17.71;100.00
49030;BME280;43337;52.070;4.508;2023-08-20T04:22:34;102298.50;;;17.83;100.00
49030;BME280;43337;52.070;4.508;2023-08-20T04:24:59;102289.03;;;17.77;100.00
49030;BME280;43337;52.070;4.508;2023-08-20T04:27:25;102280.03;;;17.61;100.00
49030;BME280;43337;52.070;4.508;2023-08-20T04:29:50;102290.63;;;17.62;100.00
49030;BME280;43337;52.070;4.508;2023-08-20T04:32:16;102303.56;;;17.70;100.00
49030;BME280;43337;52.070;4.508;2023-08-20T04:34:41;102304.78;;;17.63;100.00
49030;BME280;43337;52.070;4.508;2023-08-20T04:37:06;102298.97;;;17.54;100.00
49030;BME280;43337;52.070;4.508;2023-08-20T04:39:32;102281.56;;;17.47;100.00
49030;BME280;43337;52.070;4.508;2023-08-20T04:41:57;102306.97;;;17.54;100.00
49030;BME280;43337;52.070;4.508;2023-08-20T04:44:22;102302.63;;;17.52;100.00
49030;BME280;43337;52.070;4.508;2023-08-20T04:46:48;102299.13;;;17.51;100.00
49030;BME280;43337;52.070;4.508;2023-08-20T04:49:14;102299.13;;;17.51;100.00
49030;BME280;43337;52.070;4.508;2023-08-20T04:51:40;102299.34;;;17.47;100.00
49030;BME280;43337;52.070;4.508;2023-08-20T04:54:05;102316.63;;;17.57;100.00
49030;BME280;43337;52.070;4.508;2023-08-20T04:56:30;102317.63;;;17.54;100.00
49030;BME280;43337;52.070;4.508;2023-08-20T04:58:56;102297.63;;;17.46;100.00
49030;BME280;43337;52.070;4.508;2023-08-20T05:01:21;102301.16;;;17.46;100.00
49030;BME280;43337;52.070;4.508;2023-08-20T05:03:46;102311.56;;;17.51;100.00
49030;BME280;43337;52.070;4.508;2023-08-20T05:06:11;102306.63;;;17.43;100.00
49030;BME280;43337;52.070;4.508;2023-08-20T05:08:37;102307.19;;;17.50;100.00
49030;BME280;43337;52.070;4.508;2023-08-20T05:11:02;102316.13;;;17.49;100.00
49030;BME280;43337;52.070;4.508;2023-08-20T05:13:28;102332.03;;;17.50;100.00
49030;BME280;43337;52.070;4.508;2023-08-20T05:15:53;102329.28;;;17.52;100.00
49030;BME280;43337;52.070;4.508;2023-08-20T05:18:18;102328.34;;;17.53;100.00
49030;BME280;43337;52.070;4.508;2023-08-20T05:20:44;102322.22;;;17.51;100.00
49030;BME280;43337;52.070;4.508;2023-08-20T05:23:09;102302.38;;;17.39;100.00
49030;BME280;43337;52.070;4.508;2023-08-20T05:25:35;102330.00;;;17.55;100.00
49030;BME280;43337;52.070;4.508;2023-08-20T05:28:00;102328.19;;;17.56;100.00
49030;BME280;43337;52.070;4.508;2023-08-20T05:30:26;102313.75;;;17.43;100.00
49030;BME280;43337;52.070;4.508;2023-08-20T05:32:51;102302.22;;;17.42;100.00
49030;BME280;43337;52.070;4.508;2023-08-20T05:35:17;102303.09;;;17.43;100.00
49030;BME280;43337;52.070;4.508;2023-08-20T05:37:42;102312.66;;;17.47;100.00
49030;BME280;43337;52.070;4.508;2023-08-20T05:40:08;102314.00;;;17.55;100.00
49030;BME280;43337;52.070;4.508;2023-08-20T05:42:34;102320.06;;;17.59;100.00
49030;BME280;43337;52.070;4.508;2023-08-20T05:44:59;102320.06;;;17.59;100.00
49030;BME280;43337;52.070;4.508;2023-08-20T05:47:25;102311.19;;;17.58;100.00
49030;BME280;43337;52.070;4.508;2023-08-20T05:49:50;102325.25;;;17.62;100.00
49030;BME280;43337;52.070;4.508;2023-08-20T05:52:15;102302.50;;;17.55;100.00
49030;BME280;43337;52.070;4.508;2023-08-20T05:54:41;102317.16;;;17.64;100.00
49030;BME280;43337;52.070;4.508;2023-08-20T05:57:06;102299.84;;;17.55;100.00
49030;BME280;43337;52.070;4.508;2023-08-20T05:59:31;102318.69;;;17.69;100.00
49030;BME280;43337;52.070;4.508;2023-08-20T06:01:57;102323.66;;;17.77;100.00
49030;BME280;43337;52.070;4.508;2023-08-20T06:04:22;102315.34;;;17.83;100.00
49030;BME280;43337;52.070;4.508;2023-08-20T06:06:47;102292.56;;;17.77;100.00
49030;BME280;43337;52.070;4.508;2023-08-20T06:09:13;102313.97;;;17.93;100.00
49030;BME280;43337;52.070;4.508;2023-08-20T06:11:38;102306.59;;;17.98;100.00
49030;BME280;43337;52.070;4.508;2023-08-20T06:14:04;102325.28;;;18.16;100.00
49030;BME280;43337;52.070;4.508;2023-08-20T06:16:29;102305.78;;;18.15;100.00
49030;BME280;43337;52.070;4.508;2023-08-20T06:18:54;102335.53;;;18.41;100.00
49030;BME280;43337;52.070;4.508;2023-08-20T06:21:19;102319.34;;;18.45;100.00
49030;BME280;43337;52.070;4.508;2023-08-20T06:23:45;102315.56;;;18.49;100.00
49030;BME280;43337;52.070;4.508;2023-08-20T06:26:10;102317.47;;;18.63;100.00
49030;BME280;43337;52.070;4.508;2023-08-20T06:28:36;102323.09;;;18.76;100.00
49030;BME280;43337;52.070;4.508;2023-08-20T06:31:02;102328.88;;;18.84;100.00
49030;BME280;43337;52.070;4.508;2023-08-20T06:33:27;102322.28;;;18.91;100.00
49030;BME280;43337;52.070;4.508;2023-08-20T06:35:52;102334.41;;;18.97;100.00
49030;BME280;43337;52.070;4.508;2023-08-20T06:38:18;102337.38;;;19.08;100.00
49030;BME280;43337;52.070;4.508;2023-08-20T06:40:43;102321.59;;;19.03;100.00
49030;BME280;43337;52.070;4.508;2023-08-20T06:43:08;102316.97;;;19.07;100.00
49030;BME280;43337;52.070;4.508;2023-08-20T06:45:34;102337.28;;;19.25;100.00
49030;BME280;43337;52.070;4.508;2023-08-20T06:47:59;102333.34;;;19.33;100.00
49030;BME280;43337;52.070;4.508;2023-08-20T06:50:24;102328.78;;;19.35;100.00
49030;BME280;43337;52.070;4.508;2023-08-20T06:52:50;102342.56;;;19.43;100.00
49030;BME280;43337;52.070;4.508;2023-08-20T06:55:15;102337.31;;;19.41;100.00
49030;BME280;43337;52.070;4.508;2023-08-20T06:57:40;102343.94;;;19.50;100.00
49030;BME280;43337;52.070;4.508;2023-08-20T07:00:06;102328.19;;;19.45;100.00
49030;BME280;43337;52.070;4.508;2023-08-20T07:02:32;102326.22;;;19.49;100.00
49030;BME280;43337;52.070;4.508;2023-08-20T07:04:57;102328.25;;;19.60;100.00
49030;BME280;43337;52.070;4.508;2023-08-20T07:07:23;102338.63;;;19.66;100.00
49030;BME280;43337;52.070;4.508;2023-08-20T07:09:48;102360.00;;;19.82;100.00
49030;BME280;43337;52.070;4.508;2023-08-20T07:12:14;102345.94;;;19.78;100.00
49030;BME280;43337;52.070;4.508;2023-08-20T07:14:39;102343.88;;;19.83;100.00
49030;BME280;43337;52.070;4.508;2023-08-20T07:17:04;102362.59;;;19.99;100.00
49030;BME280;43337;52.070;4.508;2023-08-20T07:19:30;102365.06;;;20.02;100.00
49030;BME280;43337;52.070;4.508;2023-08-20T07:21:56;102367.03;;;20.14;100.00
49030;BME280;43337;52.070;4.508;2023-08-20T07:24:21;102377.19;;;20.23;100.00
49030;BME280;43337;52.070;4.508;2023-08-20T07:26:51;102369.00;;;20.27;100.00
49030;BME280;43337;52.070;4.508;2023-08-20T07:29:17;102341.38;;;20.26;100.00
49030;BME280;43337;52.070;4.508;2023-08-20T07:31:42;102364.78;;;20.37;100.00
49030;BME280;43337;52.070;4.508;2023-08-20T07:34:07;102369.78;;;20.43;100.00
49030;BME280;43337;52.070;4.508;2023-08-20T07:36:33;102365.84;;;20.50;100.00
49030;BME280;43337;52.070;4.508;2023-08-20T07:38:59;102373.31;;;20.59;100.00
49030;BME280;43337;52.070;4.508;2023-08-20T07:41:25;102378.38;;;20.64;100.00
49030;BME280;43337;52.070;4.508;2023-08-20T07:43:50;102380.50;;;20.73;100.00
49030;BME280;43337;52.070;4.508;2023-08-20T07:46:16;102359.56;;;20.65;100.00
49030;BME280;43337;52.070;4.508;2023-08-20T07:48:42;102376.59;;;20.79;100.00
49030;BME280;43337;52.070;4.508;2023-08-20T07:51:08;102374.03;;;20.91;100.00
49030;BME280;43337;52.070;4.508;2023-08-20T07:53:34;102378.03;;;20.98;100.00
49030;BME280;43337;52.070;4.508;2023-08-20T07:56:02;102382.34;;;21.01;100.00
49030;BME280;43337;52.070;4.508;2023-08-20T07:58:28;102377.66;;;21.05;100.00
49030;BME280;43337;52.070;4.508;2023-08-20T08:00:54;102392.59;;;21.23;100.00
49030;BME280;43337;52.070;4.508;2023-08-20T08:03:19;102393.44;;;21.24;100.00
49030;BME280;43337;52.070;4.508;2023-08-20T08:05:48;102398.84;;;21.38;100.00
49030;BME280;43337;52.070;4.508;2023-08-20T08:08:17;102379.31;;;21.36;100.00
49030;BME280;43337;52.070;4.508;2023-08-20T08:10:43;102403.97;;;21.55;100.00
49030;BME280;43337;52.070;4.508;2023-08-20T08:13:14;102409.69;;;21.63;100.00
49030;BME280;43337;52.070;4.508;2023-08-20T08:15:39;102407.38;;;21.72;100.00
49030;BME280;43337;52.070;4.508;2023-08-20T08:18:05;102402.50;;;21.78;100.00
49030;BME280;43337;52.070;4.508;2023-08-20T08:20:31;102407.53;;;21.83;100.00
49030;BME280;43337;52.070;4.508;2023-08-20T08:22:56;102404.66;;;21.86;100.00
49030;BME280;43337;52.070;4.508;2023-08-20T08:25:21;102398.94;;;21.92;100.00
49030;BME280;43337;52.070;4.508;2023-08-20T08:27:47;102402.34;;;21.94;100.00
49030;BME280;43337;52.070;4.508;2023-08-20T08:30:13;102396.59;;;22.00;100.00
49030;BME280;43337;52.070;4.508;2023-08-20T08:32:39;102405.09;;;22.07;100.00
49030;BME280;43337;52.070;4.508;2023-08-20T08:35:05;102383.06;;;22.02;100.00
49030;BME280;43337;52.070;4.508;2023-08-20T08:37:30;102391.94;;;22.16;100.00
49030;BME280;43337;52.070;4.508;2023-08-20T08:39:57;102381.13;;;22.18;100.00
49030;BME280;43337;52.070;4.508;2023-08-20T08:42:23;102401.34;;;22.36;100.00
49030;BME280;43337;52.070;4.508;2023-08-20T08:44:50;102405.53;;;22.40;100.00
49030;BME280;43337;52.070;4.508;2023-08-20T08:47:17;102405.59;;;22.53;100.00
49030;BME280;43337;52.070;4.508;2023-08-20T08:49:44;102403.31;;;22.60;100.00
49030;BME280;43337;52.070;4.508;2023-08-20T08:52:12;102383.34;;;22.51;100.00
49030;BME280;43337;52.070;4.508;2023-08-20T08:54:37;102407.88;;;22.72;100.00
49030;BME280;43337;52.070;4.508;2023-08-20T08:57:04;102416.47;;;22.77;100.00
49030;BME280;43337;52.070;4.508;2023-08-20T08:59:29;102413.38;;;22.83;100.00
49030;BME280;43337;52.070;4.508;2023-08-20T09:01:55;102411.34;;;22.87;100.00
49030;BME280;43337;52.070;4.508;2023-08-20T09:04:22;102416.94;;;22.97;100.00
49030;BME280;43337;52.070;4.508;2023-08-20T09:06:52;102398.50;;;22.90;100.00
49030;BME280;43337;52.070;4.508;2023-08-20T09:09:19;102418.13;;;23.05;100.00
49030;BME280;43337;52.070;4.508;2023-08-20T09:11:45;102404.81;;;23.04;100.00
49030;BME280;43337;52.070;4.508;2023-08-20T09:14:24;102419.94;;;23.18;100.00
49030;BME280;43337;52.070;4.508;2023-08-20T09:17:02;102414.34;;;23.21;100.00
49030;BME280;43337;52.070;4.508;2023-08-20T09:19:35;102394.69;;;23.20;100.00
49030;BME280;43337;52.070;4.508;2023-08-20T09:22:01;102419.59;;;23.35;100.00
49030;BME280;43337;52.070;4.508;2023-08-20T09:24:32;102405.09;;;23.37;100.00
49030;BME280;43337;52.070;4.508;2023-08-20T09:26:59;102408.81;;;23.48;100.00
49030;BME280;43337;52.070;4.508;2023-08-20T09:29:24;102398.72;;;23.51;100.00
49030;BME280;43337;52.070;4.508;2023-08-20T09:32:00;102415.59;;;23.66;100.00
49030;BME280;43337;52.070;4.508;2023-08-20T09:34:36;102393.19;;;23.66;100.00
49030;BME280;43337;52.070;4.508;2023-08-20T09:37:01;102393.66;;;23.72;100.00
49030;BME280;43337;52.070;4.508;2023-08-20T09:39:27;102389.00;;;23.74;100.00
49030;BME280;43337;52.070;4.508;2023-08-20T09:41:53;102417.88;;;23.96;100.00
49030;BME280;43337;52.070;4.508;2023-08-20T09:44:19;102413.75;;;24.03;100.00
49030;BME280;43337;52.070;4.508;2023-08-20T09:46:46;102413.28;;;24.09;100.00
49030;BME280;43337;52.070;4.508;2023-08-20T09:49:14;102418.00;;;24.19;100.00
49030;BME280;43337;52.070;4.508;2023-08-20T09:51:43;102419.13;;;24.27;100.00
49030;BME280;43337;52.070;4.508;2023-08-20T09:54:17;102413.38;;;24.32;100.00
49030;BME280;43337;52.070;4.508;2023-08-20T09:56:46;102397.81;;;24.24;100.00
49030;BME280;43337;52.070;4.508;2023-08-20T09:59:15;102412.94;;;24.38;100.00
49030;BME280;43337;52.070;4.508;2023-08-20T10:01:42;102422.16;;;24.47;100.00
49030;BME280;43337;52.070;4.508;2023-08-20T10:04:09;102423.53;;;24.52;100.00
49030;BME280;43337;52.070;4.508;2023-08-20T10:06:35;102404.69;;;24.52;100.00
49030;BME280;43337;52.070;4.508;2023-08-20T10:09:02;102395.50;;;24.55;100.00
49030;BME280;43337;52.070;4.508;2023-08-20T10:11:28;102425.78;;;24.70;100.00
49030;BME280;43337;52.070;4.508;2023-08-20T10:13:53;102411.81;;;24.65;100.00
49030;BME280;43337;52.070;4.508;2023-08-20T10:16:20;102402.38;;;24.59;100.00
49030;BME280;43337;52.070;4.508;2023-08-20T10:18:47;102415.88;;;24.70;100.00
49030;BME280;43337;52.070;4.508;2023-08-20T10:21:13;102410.00;;;24.76;100.00
49030;BME280;43337;52.070;4.508;2023-08-20T10:23:41;102417.72;;;24.81;100.00
49030;BME280;43337;52.070;4.508;2023-08-20T10:26:10;102409.66;;;24.92;100.00
49030;BME280;43337;52.070;4.508;2023-08-20T10:28:36;102411.16;;;24.96;100.00
49030;BME280;43337;52.070;4.508;2023-08-20T10:31:10;102410.31;;;25.07;100.00
49030;BME280;43337;52.070;4.508;2023-08-20T10:36:17;102401.72;;;25.02;100.00
49030;BME280;43337;52.070;4.508;2023-08-20T10:38:45;102422.03;;;25.06;100.00
49030;BME280;43337;52.070;4.508;2023-08-20T10:41:11;102423.31;;;25.13;100.00
49030;BME280;43337;52.070;4.508;2023-08-20T10:43:46;102402.13;;;25.20;100.00
49030;BME280;43337;52.070;4.508;2023-08-20T10:46:23;102406.78;;;25.29;100.00
49030;BME280;43337;52.070;4.508;2023-08-20T10:48:59;102407.16;;;25.36;100.00
49030;BME280;43337;52.070;4.508;2023-08-20T10:51:34;102416.47;;;25.43;99.77
49030;BME280;43337;52.070;4.508;2023-08-20T10:59:21;102394.72;;;25.67;94.94
49030;BME280;43337;52.070;4.508;2023-08-20T11:01:48;102404.03;;;25.74;99.56
49030;BME280;43337;52.070;4.508;2023-08-20T11:04:19;102412.38;;;25.82;97.82
49030;BME280;43337;52.070;4.508;2023-08-20T11:06:46;102408.31;;;25.76;96.84
49030;BME280;43337;52.070;4.508;2023-08-20T11:09:12;102412.13;;;25.74;97.43
49030;BME280;43337;52.070;4.508;2023-08-20T11:11:39;102404.53;;;25.79;97.05
49030;BME280;43337;52.070;4.508;2023-08-20T11:14:07;102402.78;;;25.89;96.82
49030;BME280;43337;52.070;4.508;2023-08-20T11:16:34;102405.13;;;25.94;94.96
49030;BME280;43337;52.070;4.508;2023-08-20T11:19:01;102404.47;;;26.01;94.10
49030;BME280;43337;52.070;4.508;2023-08-20T11:21:28;102412.06;;;26.08;93.22
49030;BME280;43337;52.070;4.508;2023-08-20T11:23:54;102390.13;;;26.01;91.73
49030;BME280;43337;52.070;4.508;2023-08-20T11:26:20;102383.47;;;26.05;90.66
49030;BME280;43337;52.070;4.508;2023-08-20T11:28:45;102401.47;;;26.16;90.37
49030;BME280;43337;52.070;4.508;2023-08-20T11:31:13;102398.13;;;26.23;90.04
49030;BME280;43337;52.070;4.508;2023-08-20T11:33:45;102398.13;;;26.23;89.40
49030;BME280;43337;52.070;4.508;2023-08-20T11:36:11;102398.00;;;26.25;89.45
49030;BME280;43337;52.070;4.508;2023-08-20T11:38:37;102382.94;;;26.22;89.55
49030;BME280;43337;52.070;4.508;2023-08-20T11:41:02;102383.13;;;26.30;90.12
49030;BME280;43337;52.070;4.508;2023-08-20T11:43:28;102386.53;;;26.33;88.37
49030;BME280;43337;52.070;4.508;2023-08-20T11:45:54;102384.72;;;26.33;87.31
49030;BME280;43337;52.070;4.508;2023-08-20T11:48:20;102395.84;;;26.40;87.42
49030;BME280;43337;52.070;4.508;2023-08-20T11:50:50;102402.47;;;26.47;86.54
49030;BME280;43337;52.070;4.508;2023-08-20T11:53:20;102405.91;;;26.49;86.71
49030;BME280;43337;52.070;4.508;2023-08-20T11:55:46;102413.47;;;26.55;85.38
49030;BME280;43337;52.070;4.508;2023-08-20T11:58:12;102395.38;;;26.46;84.90
49030;BME280;43337;52.070;4.508;2023-08-20T12:00:38;102417.44;;;26.51;84.49
49030;BME280;43337;52.070;4.508;2023-08-20T12:03:03;102412.91;;;26.40;82.46
49030;BME280;43337;52.070;4.508;2023-08-20T12:05:30;102389.19;;;26.23;81.73
49030;BME280;43337;52.070;4.508;2023-08-20T12:08:00;102413.03;;;26.39;82.92
49030;BME280;43337;52.070;4.508;2023-08-20T12:10:28;102411.94;;;26.41;84.77
49030;BME280;43337;52.070;4.508;2023-08-20T12:12:55;102425.78;;;26.48;83.82
49030;BME280;43337;52.070;4.508;2023-08-20T12:15:21;102422.38;;;26.46;82.74
49030;BME280;43337;52.070;4.508;2023-08-20T12:20:22;102407.44;;;26.30;83.93
49030;BME280;43337;52.070;4.508;2023-08-20T12:22:48;102414.28;;;26.35;84.44
49030;BME280;43337;52.070;4.508;2023-08-20T12:25:13;102415.16;;;26.35;86.07
49030;BME280;43337;52.070;4.508;2023-08-20T12:27:38;102430.25;;;26.38;86.30
49030;BME280;43337;52.070;4.508;2023-08-20T12:30:04;102413.84;;;26.29;87.37
49030;BME280;43337;52.070;4.508;2023-08-20T12:32:30;102411.50;;;26.25;88.22
49030;BME280;43337;52.070;4.508;2023-08-20T12:34:55;102420.75;;;26.22;88.85
49030;BME280;43337;52.070;4.508;2023-08-20T12:37:21;102417.44;;;26.19;90.18
49030;BME280;43337;52.070;4.508;2023-08-20T12:39:46;102404.97;;;26.07;90.76
49030;BME280;43337;52.070;4.508;2023-08-20T12:42:12;102416.22;;;26.12;91.93
49030;BME280;43337;52.070;4.508;2023-08-20T12:44:37;102415.47;;;26.10;91.53
49030;BME280;43337;52.070;4.508;2023-08-20T12:47:02;102416.47;;;26.09;91.44
49030;BME280;43337;52.070;4.508;2023-08-20T12:49:28;102409.63;;;26.04;91.94